createdAt,value
2023-05-16T00:02:41.564Z,52.40
2023-05-16T00:07:45.537Z,52.30
2023-05-16T00:12:48.363Z,52.40
2023-05-16T00:17:52.644Z,52.40
2023-05-16T00:22:55.706Z,52.40
2023-05-16T00:27:58.580Z,52.40
2023-05-16T00:33:03.033Z,52.30
2023-05-16T00:38:06.142Z,52.10
2023-05-16T00:43:08.945Z,52.30
2023-05-16T00:48:13.908Z,52.50
2023-05-16T00:53:16.815Z,52.10
2023-05-16T00:58:20.587Z,52.30
2023-05-16T01:03:25.299Z,52.50
2023-05-16T01:08:28.180Z,52.30
2023-05-16T01:13:36.889Z,52.30
2023-05-16T01:18:44.434Z,52.30
2023-05-16T01:23:54.289Z,52.30
2023-05-16T01:28:58.986Z,52.10
2023-05-16T01:34:01.817Z,52.30
2023-05-16T01:39:16.287Z,52.10
2023-05-16T01:44:29.057Z,52.10
2023-05-16T01:49:37.281Z,52.10
2023-05-16T01:54:44.936Z,52.00
2023-05-16T01:59:49.511Z,52.00
2023-05-16T02:04:52.391Z,51.70
2023-05-16T02:09:55.258Z,52.00
2023-05-16T02:14:59.466Z,51.80
2023-05-16T02:20:06.741Z,52.00
2023-05-16T02:25:10.469Z,52.00
2023-05-16T02:30:14.978Z,51.90
2023-05-16T02:35:17.765Z,51.40
2023-05-16T02:40:20.643Z,51.60
2023-05-16T02:45:25.044Z,52.00
2023-05-16T02:50:28.007Z,52.00
2023-05-16T02:55:33.052Z,51.70
2023-05-16T03:00:37.332Z,51.80
2023-05-16T03:05:40.150Z,51.70
2023-05-16T03:10:42.930Z,51.60
2023-05-16T03:15:47.183Z,51.60
2023-05-16T03:20:53.021Z,51.60
2023-05-16T03:25:56.177Z,51.80
2023-05-16T03:31:00.526Z,51.60
2023-05-16T03:36:03.553Z,51.70
2023-05-16T03:41:06.605Z,51.40
2023-05-16T03:46:10.753Z,51.50
2023-05-16T03:51:13.658Z,51.70
2023-05-16T03:56:16.542Z,51.40
2023-05-16T04:01:20.776Z,51.40
2023-05-16T04:06:24.283Z,51.50
2023-05-16T04:11:27.814Z,51.40
2023-05-16T04:16:31.970Z,51.60
2023-05-16T04:21:35.904Z,51.60
2023-05-16T04:26:38.751Z,51.50
2023-05-16T04:31:43.054Z,51.30
2023-05-16T04:36:45.939Z,51.50
2023-05-16T04:41:48.789Z,51.70
2023-05-16T04:46:53.325Z,51.40
2023-05-16T04:51:57.826Z,51.40
2023-05-16T04:57:01.340Z,51.50
2023-05-16T05:02:07.992Z,51.70
2023-05-16T05:07:11.035Z,51.60
2023-05-16T05:12:13.814Z,51.70
2023-05-16T05:17:18.331Z,51.50
2023-05-16T05:22:21.230Z,51.40
2023-05-16T05:27:25.400Z,51.70
2023-05-16T05:32:29.643Z,51.40
2023-05-16T05:37:32.477Z,51.60
2023-05-16T05:42:35.530Z,51.50
2023-05-16T05:47:40.005Z,51.70
2023-05-16T05:52:44.861Z,51.70
2023-05-16T05:57:47.802Z,51.60
2023-05-16T06:02:52.104Z,51.40
2023-05-16T06:07:56.112Z,51.30
2023-05-16T06:12:59.859Z,51.20
2023-05-16T06:18:04.111Z,51.40
2023-05-16T06:23:06.968Z,51.60
2023-05-16T06:28:09.835Z,51.40
2023-05-16T06:33:14.008Z,51.40
2023-05-16T06:38:17.158Z,51.20
2023-05-16T06:43:22.152Z,51.30
2023-05-16T06:48:26.570Z,51.30
2023-05-16T06:53:29.576Z,51.30
2023-05-16T06:58:32.592Z,51.30
2023-05-16T07:03:37.051Z,51.20
2023-05-16T07:08:40.103Z,51.30
2023-05-16T07:13:43.912Z,51.00
2023-05-16T07:18:48.209Z,51.40
2023-05-16T07:23:51.206Z,51.60
2023-05-16T07:28:54.102Z,53.30
2023-05-16T07:33:58.352Z,53.50
2023-05-16T07:39:01.295Z,53.50
2023-05-16T07:44:04.450Z,53.00
2023-05-16T07:49:08.663Z,52.10
2023-05-16T07:54:11.774Z,52.10
2023-05-16T07:59:15.908Z,51.60
2023-05-16T08:04:20.953Z,51.70
2023-05-16T08:09:23.873Z,51.70
2023-05-16T08:14:26.717Z,51.70
2023-05-16T08:19:32.829Z,51.40
2023-05-16T08:24:36.185Z,51.40
2023-05-16T08:29:39.039Z,51.10
2023-05-16T08:34:43.427Z,50.90
2023-05-16T08:39:46.769Z,50.90
2023-05-16T08:44:49.647Z,51.00
2023-05-16T08:49:55.441Z,50.40
2023-05-16T08:55:10.346Z,50.40
2023-05-16T09:00:15.370Z,50.20
2023-05-16T09:05:19.891Z,50.10
2023-05-16T09:10:22.909Z,49.80
2023-05-16T09:15:32.630Z,49.60
2023-05-16T09:20:40.318Z,49.70
2023-05-16T09:25:43.221Z,49.20
2023-05-16T09:30:49.140Z,49.40
2023-05-16T09:35:59.117Z,49.60
2023-05-16T09:41:03.343Z,49.50
2023-05-16T09:46:06.260Z,49.70
2023-05-16T09:51:10.678Z,49.60
2023-05-16T09:56:15.080Z,49.70
2023-05-16T10:01:18.857Z,49.80
2023-05-16T10:06:23.951Z,49.40
2023-05-16T10:11:27.201Z,49.50
2023-05-16T10:16:30.275Z,49.50
2023-05-16T10:21:35.901Z,49.00
2023-05-16T10:26:38.955Z,48.70
2023-05-16T10:31:42.656Z,48.70
2023-05-16T10:36:47.528Z,48.70
2023-05-16T10:41:51.917Z,48.50
2023-05-16T10:46:54.802Z,48.50
2023-05-16T10:52:09.807Z,48.90
2023-05-16T10:57:17.691Z,48.70
2023-05-16T11:02:26.279Z,48.40
2023-05-16T11:07:34.822Z,48.30
2023-05-16T11:12:39.402Z,48.10
2023-05-16T11:17:46.195Z,48.20
2023-05-16T11:22:50.761Z,47.90
2023-05-16T11:27:53.788Z,47.80
2023-05-16T11:32:57.058Z,47.30
2023-05-16T11:38:01.306Z,47.80
2023-05-16T11:43:07.118Z,47.40
2023-05-16T11:48:12.833Z,47.50
2023-05-16T11:53:18.734Z,48.20
2023-05-16T11:58:21.679Z,47.80
2023-05-16T12:03:25.265Z,47.80
2023-05-16T12:08:30.741Z,47.70
2023-05-16T12:13:33.809Z,47.60
2023-05-16T12:18:40.613Z,47.70
2023-05-16T12:23:47.032Z,47.20
2023-05-16T12:28:58.894Z,47.10
2023-05-16T12:34:02.083Z,46.70
2023-05-16T12:39:06.369Z,46.60
2023-05-16T12:44:13.528Z,47.10
2023-05-16T12:49:16.510Z,47.40
2023-05-16T12:54:22.927Z,47.80
2023-05-16T12:59:27.031Z,47.70
2023-05-16T13:04:29.974Z,47.70
2023-05-16T13:09:34.225Z,47.60
2023-05-16T13:14:38.095Z,47.20
2023-05-16T13:19:40.991Z,47.20
2023-05-16T13:24:45.161Z,47.20
2023-05-16T13:29:48.525Z,47.40
2023-05-16T13:34:51.443Z,47.30
2023-05-16T13:39:56.079Z,47.20
2023-05-16T13:44:58.956Z,47.10
2023-05-16T13:50:06.166Z,46.70
2023-05-16T13:55:10.633Z,47.00
2023-05-16T14:05:20.120Z,47.20
2023-05-16T14:10:24.466Z,47.10
2023-05-16T14:15:27.630Z,46.90
2023-05-16T14:20:31.119Z,47.30
2023-05-16T14:25:35.364Z,47.30
2023-05-16T14:30:38.263Z,47.00
2023-05-16T14:35:41.366Z,47.30
2023-05-16T14:40:45.601Z,47.00
2023-05-16T14:45:48.843Z,46.60
2023-05-16T14:50:52.095Z,46.70
2023-05-16T14:55:56.309Z,46.50
2023-05-16T15:01:00.152Z,46.40
2023-05-16T15:06:05.324Z,46.10
2023-05-16T15:11:09.539Z,45.10
2023-05-16T15:16:12.566Z,44.60
2023-05-16T15:21:15.552Z,44.60
2023-05-16T15:26:19.809Z,45.00
2023-05-16T15:31:22.923Z,44.90
2023-05-16T15:36:25.987Z,45.20
2023-05-16T15:41:50.673Z,45.90
2023-05-16T15:46:53.316Z,45.90
2023-05-16T15:51:56.166Z,46.00
2023-05-16T15:57:00.523Z,45.80
2023-05-16T16:02:05.442Z,45.90
2023-05-16T16:07:08.317Z,46.20
2023-05-16T16:12:12.627Z,46.50
2023-05-16T16:17:16.284Z,46.40
2023-05-16T16:22:21.614Z,46.50
2023-05-16T16:27:26.500Z,46.70
2023-05-16T16:32:29.632Z,46.80
2023-05-16T16:37:32.661Z,46.90
2023-05-16T16:42:38.563Z,46.80
2023-05-16T16:47:42.205Z,47.20
2023-05-16T16:52:45.138Z,46.60
2023-05-16T16:57:49.351Z,46.50
2023-05-16T17:02:52.374Z,46.40
2023-05-16T17:07:55.329Z,46.60
2023-05-16T17:13:07.004Z,46.70
2023-05-16T17:18:09.890Z,46.80
2023-05-16T17:23:12.737Z,47.00
2023-05-16T17:28:17.279Z,46.90
2023-05-16T17:33:20.521Z,47.00
2023-05-16T17:38:24.148Z,47.10
2023-05-16T17:43:30.510Z,47.30
2023-05-16T17:48:33.497Z,46.90
2023-05-16T17:53:37.552Z,47.20
2023-05-16T17:58:42.543Z,47.20
2023-05-16T18:03:45.588Z,47.30
2023-05-16T18:08:48.469Z,47.30
2023-05-16T18:13:52.677Z,47.40
2023-05-16T18:18:55.777Z,47.30
2023-05-16T18:23:59.651Z,47.40
2023-05-16T18:29:03.895Z,47.50
2023-05-16T18:34:07.183Z,47.70
2023-05-16T18:39:10.713Z,47.80
2023-05-16T18:44:17.283Z,47.80
2023-05-16T18:49:20.250Z,47.80
2023-05-16T18:54:24.459Z,47.80
2023-05-16T18:59:29.416Z,47.90
2023-05-16T19:04:32.527Z,47.90
2023-05-16T19:09:35.816Z,48.00
2023-05-16T19:14:40.043Z,48.40
2023-05-16T19:19:43.053Z,48.30
2023-05-16T19:24:45.904Z,48.20
2023-05-16T19:29:50.410Z,48.40
2023-05-16T19:34:53.475Z,48.20
2023-05-16T19:39:56.584Z,48.40
2023-05-16T19:45:00.750Z,47.90
2023-05-16T19:50:03.656Z,48.50
2023-05-16T19:55:09.478Z,48.30
2023-05-16T20:00:15.221Z,48.50
2023-05-16T20:10:22.863Z,48.80
2023-05-16T20:15:27.429Z,48.50
2023-05-16T20:20:30.871Z,48.50
2023-05-16T20:25:33.770Z,48.70
2023-05-16T20:30:37.951Z,48.40
2023-05-16T20:35:40.814Z,48.60
2023-05-16T20:40:43.675Z,48.70
2023-05-16T20:45:47.887Z,49.50
2023-05-16T20:50:50.914Z,49.70
2023-05-16T20:55:53.825Z,48.70
2023-05-16T21:00:58.446Z,49.80
2023-05-16T21:06:01.368Z,49.00
2023-05-16T21:11:05.520Z,48.70
2023-05-16T21:16:10.121Z,49.60
2023-05-16T21:21:13.017Z,49.80
2023-05-16T21:26:16.275Z,49.90
2023-05-16T21:31:20.524Z,49.80
2023-05-16T21:36:24.612Z,49.60
2023-05-16T21:41:27.790Z,49.90
2023-05-16T21:46:32.009Z,49.80
2023-05-16T21:51:34.935Z,49.90
2023-05-16T21:56:37.895Z,49.60
2023-05-16T22:01:42.168Z,49.80
2023-05-16T22:06:45.027Z,49.70
2023-05-16T22:11:47.906Z,49.90
2023-05-16T22:16:52.152Z,49.60
2023-05-16T22:21:55.034Z,50.00
2023-05-16T22:26:57.864Z,49.50
2023-05-16T22:32:02.081Z,50.00
2023-05-16T22:37:05.190Z,49.80
2023-05-16T22:42:08.213Z,49.90
2023-05-16T22:47:12.466Z,49.60
2023-05-16T22:52:15.890Z,49.70
2023-05-16T22:57:18.832Z,49.60
2023-05-16T23:02:23.275Z,49.50
2023-05-16T23:07:31.608Z,49.50
2023-05-16T23:12:34.498Z,49.20
2023-05-16T23:17:39.461Z,49.30
2023-05-16T23:22:42.497Z,49.30
2023-05-16T23:27:45.443Z,48.80
2023-05-16T23:32:51.466Z,49.00
2023-05-16T23:37:54.399Z,48.90
2023-05-16T23:42:57.272Z,48.70
2023-05-16T23:48:01.666Z,48.90
2023-05-16T23:53:05.040Z,48.50
2023-05-16T23:58:08.465Z,48.60
